sensor_id;sensor_type;location;lat;lon;timestamp;P1;durP1;ratioP1;P2;durP2;ratioP2
51654;SDS011;37732;53.106;7.030;2024-03-29T00:01:51;4.18;;;1.67;;
51654;SDS011;37732;53.106;7.030;2024-03-29T00:04:16;4.57;;;1.40;;
51654;SDS011;37732;53.106;7.030;2024-03-29T00:06:42;2.67;;;1.30;;
51654;SDS011;37732;53.106;7.030;2024-03-29T00:09:08;7.40;;;1.85;;
51654;SDS011;37732;53.106;7.030;2024-03-29T00:11:33;3.90;;;1.70;;
51654;SDS011;37732;53.106;7.030;2024-03-29T00:13:59;7.60;;;2.70;;
51654;SDS011;37732;53.106;7.030;2024-03-29T00:16:25;3.30;;;1.48;;
51654;SDS011;37732;53.106;7.030;2024-03-29T00:18:51;7.50;;;1.80;;
51654;SDS011;37732;53.106;7.030;2024-03-29T00:21:17;4.82;;;1.75;;
51654;SDS011;37732;53.106;7.030;2024-03-29T00:23:43;6.75;;;1.65;;
51654;SDS011;37732;53.106;7.030;2024-03-29T00:26:10;4.43;;;1.45;;
51654;SDS011;37732;53.106;7.030;2024-03-29T00:28:36;5.20;;;1.60;;
51654;SDS011;37732;53.106;7.030;2024-03-29T00:31:02;4.10;;;1.60;;
51654;SDS011;37732;53.106;7.030;2024-03-29T00:33:28;6.22;;;1.60;;
51654;SDS011;37732;53.106;7.030;2024-03-29T00:35:53;7.40;;;1.90;;
51654;SDS011;37732;53.106;7.030;2024-03-29T00:38:19;6.88;;;1.50;;
51654;SDS011;37732;53.106;7.030;2024-03-29T00:40:44;4.15;;;1.52;;
51654;SDS011;37732;53.106;7.030;2024-03-29T00:43:10;5.45;;;1.45;;
51654;SDS011;37732;53.106;7.030;2024-03-29T00:45:36;4.35;;;1.38;;
51654;SDS011;37732;53.106;7.030;2024-03-29T00:48:01;3.67;;;1.40;;
51654;SDS011;37732;53.106;7.030;2024-03-29T00:50:27;6.43;;;1.77;;
51654;SDS011;37732;53.106;7.030;2024-03-29T00:52:53;3.38;;;1.52;;
51654;SDS011;37732;53.106;7.030;2024-03-29T00:55:18;4.32;;;1.88;;
51654;SDS011;37732;53.106;7.030;2024-03-29T00:57:44;4.93;;;1.70;;
51654;SDS011;37732;53.106;7.030;2024-03-29T01:03:03;7.10;;;1.58;;
51654;SDS011;37732;53.106;7.030;2024-03-29T01:05:28;3.85;;;1.25;;
51654;SDS011;37732;53.106;7.030;2024-03-29T01:07:54;5.25;;;1.80;;
51654;SDS011;37732;53.106;7.030;2024-03-29T01:10:19;6.28;;;1.63;;
51654;SDS011;37732;53.106;7.030;2024-03-29T01:12:47;7.22;;;1.50;;
51654;SDS011;37732;53.106;7.030;2024-03-29T01:15:12;3.88;;;1.55;;
51654;SDS011;37732;53.106;7.030;2024-03-29T01:17:38;4.57;;;1.88;;
51654;SDS011;37732;53.106;7.030;2024-03-29T01:20:04;6.20;;;1.70;;
51654;SDS011;37732;53.106;7.030;2024-03-29T01:22:30;4.75;;;1.30;;
51654;SDS011;37732;53.106;7.030;2024-03-29T01:24:55;5.70;;;1.67;;
51654;SDS011;37732;53.106;7.030;2024-03-29T01:27:22;5.97;;;1.67;;
51654;SDS011;37732;53.106;7.030;2024-03-29T01:29:48;5.03;;;1.60;;
51654;SDS011;37732;53.106;7.030;2024-03-29T01:32:13;3.38;;;1.45;;
51654;SDS011;37732;53.106;7.030;2024-03-29T01:34:39;7.38;;;1.55;;
51654;SDS011;37732;53.106;7.030;2024-03-29T01:37:05;4.93;;;1.67;;
51654;SDS011;37732;53.106;7.030;2024-03-29T01:39:30;3.83;;;1.55;;
51654;SDS011;37732;53.106;7.030;2024-03-29T01:41:56;4.95;;;1.40;;
51654;SDS011;37732;53.106;7.030;2024-03-29T01:44:22;5.85;;;1.58;;
51654;SDS011;37732;53.106;7.030;2024-03-29T01:46:47;6.93;;;1.60;;
51654;SDS011;37732;53.106;7.030;2024-03-29T01:49:14;6.25;;;1.70;;
51654;SDS011;37732;53.106;7.030;2024-03-29T01:51:40;3.63;;;1.50;;
51654;SDS011;37732;53.106;7.030;2024-03-29T01:54:07;6.90;;;1.52;;
51654;SDS011;37732;53.106;7.030;2024-03-29T01:56:35;6.28;;;1.60;;
51654;SDS011;37732;53.106;7.030;2024-03-29T01:59:01;5.75;;;1.75;;
51654;SDS011;37732;53.106;7.030;2024-03-29T02:01:29;4.05;;;1.75;;
51654;SDS011;37732;53.106;7.030;2024-03-29T02:03:56;7.13;;;1.70;;
51654;SDS011;37732;53.106;7.030;2024-03-29T02:06:22;6.05;;;1.95;;
51654;SDS011;37732;53.106;7.030;2024-03-29T02:08:57;5.32;;;1.70;;
51654;SDS011;37732;53.106;7.030;2024-03-29T02:11:22;5.18;;;2.13;;
51654;SDS011;37732;53.106;7.030;2024-03-29T02:13:49;5.50;;;1.33;;
51654;SDS011;37732;53.106;7.030;2024-03-29T02:16:15;4.63;;;1.48;;
51654;SDS011;37732;53.106;7.030;2024-03-29T02:18:41;3.45;;;1.40;;
51654;SDS011;37732;53.106;7.030;2024-03-29T02:21:07;6.93;;;1.48;;
51654;SDS011;37732;53.106;7.030;2024-03-29T02:23:33;7.40;;;1.75;;
51654;SDS011;37732;53.106;7.030;2024-03-29T02:26:01;6.88;;;1.95;;
51654;SDS011;37732;53.106;7.030;2024-03-29T02:28:28;3.60;;;1.15;;
51654;SDS011;37732;53.106;7.030;2024-03-29T02:30:55;7.32;;;1.70;;
51654;SDS011;37732;53.106;7.030;2024-03-29T02:33:21;3.65;;;1.30;;
51654;SDS011;37732;53.106;7.030;2024-03-29T02:35:47;5.03;;;1.38;;
51654;SDS011;37732;53.106;7.030;2024-03-29T02:38:13;6.20;;;1.38;;
51654;SDS011;37732;53.106;7.030;2024-03-29T02:40:38;5.03;;;1.58;;
51654;SDS011;37732;53.106;7.030;2024-03-29T02:43:04;4.40;;;1.90;;
51654;SDS011;37732;53.106;7.030;2024-03-29T02:45:30;6.38;;;1.70;;
51654;SDS011;37732;53.106;7.030;2024-03-29T02:47:55;4.30;;;1.23;;
51654;SDS011;37732;53.106;7.030;2024-03-29T02:50:21;5.07;;;1.60;;
51654;SDS011;37732;53.106;7.030;2024-03-29T02:52:47;6.88;;;2.15;;
51654;SDS011;37732;53.106;7.030;2024-03-29T02:55:12;6.07;;;1.92;;
51654;SDS011;37732;53.106;7.030;2024-03-29T02:57:38;7.90;;;1.52;;
51654;SDS011;37732;53.106;7.030;2024-03-29T03:00:05;7.57;;;1.95;;
51654;SDS011;37732;53.106;7.030;2024-03-29T03:02:31;4.75;;;1.40;;
51654;SDS011;37732;53.106;7.030;2024-03-29T03:04:57;3.90;;;1.60;;
51654;SDS011;37732;53.106;7.030;2024-03-29T03:07:24;4.18;;;1.65;;
51654;SDS011;37732;53.106;7.030;2024-03-29T03:10:09;5.30;;;1.60;;
51654;SDS011;37732;53.106;7.030;2024-03-29T03:12:53;3.47;;;1.55;;
51654;SDS011;37732;53.106;7.030;2024-03-29T03:15:19;6.53;;;1.65;;
51654;SDS011;37732;53.106;7.030;2024-03-29T03:17:44;6.25;;;2.05;;
51654;SDS011;37732;53.106;7.030;2024-03-29T03:20:10;4.78;;;1.92;;
51654;SDS011;37732;53.106;7.030;2024-03-29T03:22:38;6.25;;;1.80;;
51654;SDS011;37732;53.106;7.030;2024-03-29T03:25:04;5.90;;;1.95;;
51654;SDS011;37732;53.106;7.030;2024-03-29T03:27:30;4.28;;;1.63;;
51654;SDS011;37732;53.106;7.030;2024-03-29T03:29:56;5.57;;;1.63;;
51654;SDS011;37732;53.106;7.030;2024-03-29T03:32:21;7.40;;;1.60;;
51654;SDS011;37732;53.106;7.030;2024-03-29T03:34:47;4.32;;;1.50;;
51654;SDS011;37732;53.106;7.030;2024-03-29T03:37:13;5.15;;;1.50;;
51654;SDS011;37732;53.106;7.030;2024-03-29T03:39:38;5.10;;;1.40;;
51654;SDS011;37732;53.106;7.030;2024-03-29T03:42:04;5.63;;;1.75;;
51654;SDS011;37732;53.106;7.030;2024-03-29T03:44:30;4.30;;;1.60;;
51654;SDS011;37732;53.106;7.030;2024-03-29T03:46:55;5.85;;;2.15;;
51654;SDS011;37732;53.106;7.030;2024-03-29T03:49:21;5.55;;;1.52;;
51654;SDS011;37732;53.106;7.030;2024-03-29T03:51:47;5.55;;;1.73;;
51654;SDS011;37732;53.106;7.030;2024-03-29T03:54:13;5.18;;;1.85;;
51654;SDS011;37732;53.106;7.030;2024-03-29T03:56:38;5.30;;;1.70;;
51654;SDS011;37732;53.106;7.030;2024-03-29T03:59:04;5.78;;;2.03;;
51654;SDS011;37732;53.106;7.030;2024-03-29T04:01:30;6.22;;;1.77;;
51654;SDS011;37732;53.106;7.030;2024-03-29T04:03:55;4.40;;;1.70;;
51654;SDS011;37732;53.106;7.030;2024-03-29T04:06:21;7.25;;;1.70;;
51654;SDS011;37732;53.106;7.030;2024-03-29T04:08:47;5.68;;;1.55;;
51654;SDS011;37732;53.106;7.030;2024-03-29T04:11:12;5.25;;;1.67;;
51654;SDS011;37732;53.106;7.030;2024-03-29T04:13:38;5.22;;;1.95;;
51654;SDS011;37732;53.106;7.030;2024-03-29T04:16:05;5.78;;;1.65;;
51654;SDS011;37732;53.106;7.030;2024-03-29T04:18:32;4.90;;;1.80;;
51654;SDS011;37732;53.106;7.030;2024-03-29T04:20:59;5.03;;;1.88;;
51654;SDS011;37732;53.106;7.030;2024-03-29T04:23:25;4.60;;;2.10;;
51654;SDS011;37732;53.106;7.030;2024-03-29T04:25:57;4.60;;;1.92;;
51654;SDS011;37732;53.106;7.030;2024-03-29T04:28:25;4.85;;;1.88;;
51654;SDS011;37732;53.106;7.030;2024-03-29T04:30:57;5.10;;;1.80;;
51654;SDS011;37732;53.106;7.030;2024-03-29T04:33:24;5.93;;;1.70;;
51654;SDS011;37732;53.106;7.030;2024-03-29T04:35:54;4.80;;;1.75;;
51654;SDS011;37732;53.106;7.030;2024-03-29T04:38:25;6.25;;;2.17;;
51654;SDS011;37732;53.106;7.030;2024-03-29T04:40:52;3.00;;;1.52;;
51654;SDS011;37732;53.106;7.030;2024-03-29T04:43:19;5.18;;;1.50;;
51654;SDS011;37732;53.106;7.030;2024-03-29T04:45:46;6.93;;;2.05;;
51654;SDS011;37732;53.106;7.030;2024-03-29T04:48:12;4.80;;;1.20;;
51654;SDS011;37732;53.106;7.030;2024-03-29T04:50:38;6.57;;;2.30;;
51654;SDS011;37732;53.106;7.030;2024-03-29T04:53:04;5.40;;;1.65;;
51654;SDS011;37732;53.106;7.030;2024-03-29T04:55:32;4.10;;;1.38;;
51654;SDS011;37732;53.106;7.030;2024-03-29T04:57:58;3.35;;;1.70;;
51654;SDS011;37732;53.106;7.030;2024-03-29T05:00:23;3.78;;;1.30;;
51654;SDS011;37732;53.106;7.030;2024-03-29T05:02:49;5.82;;;1.63;;
51654;SDS011;37732;53.106;7.030;2024-03-29T05:05:14;5.68;;;1.70;;
51654;SDS011;37732;53.106;7.030;2024-03-29T05:07:40;3.97;;;1.55;;
51654;SDS011;37732;53.106;7.030;2024-03-29T05:10:06;9.70;;;1.92;;
51654;SDS011;37732;53.106;7.030;2024-03-29T05:12:33;6.07;;;2.00;;
51654;SDS011;37732;53.106;7.030;2024-03-29T05:14:58;7.10;;;1.85;;
51654;SDS011;37732;53.106;7.030;2024-03-29T05:17:24;5.38;;;1.80;;
51654;SDS011;37732;53.106;7.030;2024-03-29T05:19:52;3.78;;;1.77;;
51654;SDS011;37732;53.106;7.030;2024-03-29T05:22:21;5.57;;;2.10;;
51654;SDS011;37732;53.106;7.030;2024-03-29T05:24:47;2.20;;;1.27;;
51654;SDS011;37732;53.106;7.030;2024-03-29T05:27:12;7.57;;;2.10;;
51654;SDS011;37732;53.106;7.030;2024-03-29T05:29:38;4.97;;;1.77;;
51654;SDS011;37732;53.106;7.030;2024-03-29T05:32:05;6.05;;;1.83;;
51654;SDS011;37732;53.106;7.030;2024-03-29T05:34:32;4.45;;;1.80;;
51654;SDS011;37732;53.106;7.030;2024-03-29T05:36:58;6.03;;;1.95;;
51654;SDS011;37732;53.106;7.030;2024-03-29T05:39:23;8.40;;;1.92;;
51654;SDS011;37732;53.106;7.030;2024-03-29T05:41:49;4.63;;;1.90;;
51654;SDS011;37732;53.106;7.030;2024-03-29T05:44:15;4.55;;;1.60;;
51654;SDS011;37732;53.106;7.030;2024-03-29T05:46:42;6.57;;;1.58;;
51654;SDS011;37732;53.106;7.030;2024-03-29T05:49:08;5.07;;;1.77;;
51654;SDS011;37732;53.106;7.030;2024-03-29T05:51:33;3.92;;;1.60;;
51654;SDS011;37732;53.106;7.030;2024-03-29T05:53:59;4.60;;;1.27;;
51654;SDS011;37732;53.106;7.030;2024-03-29T05:56:25;4.75;;;1.52;;
51654;SDS011;37732;53.106;7.030;2024-03-29T05:58:51;5.55;;;1.50;;
51654;SDS011;37732;53.106;7.030;2024-03-29T06:01:17;2.83;;;1.48;;
51654;SDS011;37732;53.106;7.030;2024-03-29T06:03:42;7.43;;;1.58;;
51654;SDS011;37732;53.106;7.030;2024-03-29T06:06:08;4.50;;;1.52;;
51654;SDS011;37732;53.106;7.030;2024-03-29T06:08:42;3.40;;;1.50;;
51654;SDS011;37732;53.106;7.030;2024-03-29T06:11:08;3.78;;;1.60;;
51654;SDS011;37732;53.106;7.030;2024-03-29T06:13:33;5.53;;;1.63;;
51654;SDS011;37732;53.106;7.030;2024-03-29T06:19:01;6.15;;;1.60;;
51654;SDS011;37732;53.106;7.030;2024-03-29T06:21:27;3.17;;;1.48;;
51654;SDS011;37732;53.106;7.030;2024-03-29T06:23:53;2.97;;;1.20;;
51654;SDS011;37732;53.106;7.030;2024-03-29T06:26:18;5.85;;;1.60;;
51654;SDS011;37732;53.106;7.030;2024-03-29T06:28:45;5.47;;;1.52;;
51654;SDS011;37732;53.106;7.030;2024-03-29T06:31:11;5.90;;;1.30;;
51654;SDS011;37732;53.106;7.030;2024-03-29T06:33:37;2.92;;;1.27;;
51654;SDS011;37732;53.106;7.030;2024-03-29T06:36:04;2.92;;;1.20;;
51654;SDS011;37732;53.106;7.030;2024-03-29T06:38:30;3.97;;;1.50;;
51654;SDS011;37732;53.106;7.030;2024-03-29T06:40:56;1.90;;;0.88;;
51654;SDS011;37732;53.106;7.030;2024-03-29T06:43:21;2.80;;;1.30;;
51654;SDS011;37732;53.106;7.030;2024-03-29T06:45:47;2.38;;;1.10;;
51654;SDS011;37732;53.106;7.030;2024-03-29T06:48:13;4.28;;;1.25;;
51654;SDS011;37732;53.106;7.030;2024-03-29T06:50:38;4.05;;;1.20;;
51654;SDS011;37732;53.106;7.030;2024-03-29T06:53:05;3.33;;;1.05;;
51654;SDS011;37732;53.106;7.030;2024-03-29T06:55:31;2.63;;;0.93;;
51654;SDS011;37732;53.106;7.030;2024-03-29T06:57:56;3.75;;;1.00;;
51654;SDS011;37732;53.106;7.030;2024-03-29T07:00:22;4.47;;;1.30;;
51654;SDS011;37732;53.106;7.030;2024-03-29T07:02:48;4.50;;;1.20;;
51654;SDS011;37732;53.106;7.030;2024-03-29T07:05:13;3.20;;;1.23;;
51654;SDS011;37732;53.106;7.030;2024-03-29T07:07:39;2.35;;;0.90;;
51654;SDS011;37732;53.106;7.030;2024-03-29T07:10:05;4.65;;;1.17;;
51654;SDS011;37732;53.106;7.030;2024-03-29T07:12:32;2.70;;;0.93;;
51654;SDS011;37732;53.106;7.030;2024-03-29T07:14:57;3.42;;;1.00;;
51654;SDS011;37732;53.106;7.030;2024-03-29T07:17:23;4.03;;;1.08;;
51654;SDS011;37732;53.106;7.030;2024-03-29T07:19:48;4.05;;;2.20;;
51654;SDS011;37732;53.106;7.030;2024-03-29T07:22:14;2.65;;;1.10;;
51654;SDS011;37732;53.106;7.030;2024-03-29T07:24:40;2.85;;;1.08;;
51654;SDS011;37732;53.106;7.030;2024-03-29T07:27:05;5.28;;;1.10;;
51654;SDS011;37732;53.106;7.030;2024-03-29T07:29:31;4.00;;;1.17;;
51654;SDS011;37732;53.106;7.030;2024-03-29T07:31:59;4.20;;;1.08;;
51654;SDS011;37732;53.106;7.030;2024-03-29T07:34:25;1.20;;;0.77;;
51654;SDS011;37732;53.106;7.030;2024-03-29T07:36:51;2.50;;;0.98;;
51654;SDS011;37732;53.106;7.030;2024-03-29T07:39:16;2.97;;;0.95;;
51654;SDS011;37732;53.106;7.030;2024-03-29T07:41:42;2.47;;;0.80;;
51654;SDS011;37732;53.106;7.030;2024-03-29T07:44:08;0.98;;;0.60;;
51654;SDS011;37732;53.106;7.030;2024-03-29T07:46:34;2.45;;;0.80;;
51654;SDS011;37732;53.106;7.030;2024-03-29T07:49:02;2.58;;;0.82;;
51654;SDS011;37732;53.106;7.030;2024-03-29T07:51:28;2.05;;;0.98;;
51654;SDS011;37732;53.106;7.030;2024-03-29T07:53:54;1.52;;;0.73;;
51654;SDS011;37732;53.106;7.030;2024-03-29T07:56:20;2.70;;;0.88;;
51654;SDS011;37732;53.106;7.030;2024-03-29T07:58:53;1.48;;;0.95;;
51654;SDS011;37732;53.106;7.030;2024-03-29T08:01:22;1.58;;;1.00;;
51654;SDS011;37732;53.106;7.030;2024-03-29T08:03:52;2.00;;;0.68;;
51654;SDS011;37732;53.106;7.030;2024-03-29T08:06:21;3.10;;;0.93;;
51654;SDS011;37732;53.106;7.030;2024-03-29T08:08:48;3.05;;;1.25;;
51654;SDS011;37732;53.106;7.030;2024-03-29T08:11:17;1.88;;;0.80;;
51654;SDS011;37732;53.106;7.030;2024-03-29T08:13:42;1.73;;;0.70;;
51654;SDS011;37732;53.106;7.030;2024-03-29T08:16:08;2.40;;;0.90;;
51654;SDS011;37732;53.106;7.030;2024-03-29T08:18:34;4.22;;;1.13;;
51654;SDS011;37732;53.106;7.030;2024-03-29T08:21:00;2.67;;;0.90;;
51654;SDS011;37732;53.106;7.030;2024-03-29T08:23:26;3.35;;;1.17;;
51654;SDS011;37732;53.106;7.030;2024-03-29T08:25:52;2.75;;;1.33;;
51654;SDS011;37732;53.106;7.030;2024-03-29T08:28:21;4.22;;;1.25;;
51654;SDS011;37732;53.106;7.030;2024-03-29T08:31:00;3.17;;;1.20;;
51654;SDS011;37732;53.106;7.030;2024-03-29T08:33:27;2.95;;;1.42;;
51654;SDS011;37732;53.106;7.030;2024-03-29T08:35:52;5.53;;;1.52;;
51654;SDS011;37732;53.106;7.030;2024-03-29T08:38:18;3.42;;;1.25;;
51654;SDS011;37732;53.106;7.030;2024-03-29T08:40:44;2.65;;;1.20;;
51654;SDS011;37732;53.106;7.030;2024-03-29T08:43:13;2.47;;;1.33;;
51654;SDS011;37732;53.106;7.030;2024-03-29T08:45:40;1.65;;;1.00;;
51654;SDS011;37732;53.106;7.030;2024-03-29T08:48:06;5.30;;;1.42;;
51654;SDS011;37732;53.106;7.030;2024-03-29T08:50:33;3.47;;;1.35;;
51654;SDS011;37732;53.106;7.030;2024-03-29T08:52:59;3.80;;;1.23;;
51654;SDS011;37732;53.106;7.030;2024-03-29T08:55:25;5.13;;;1.20;;
51654;SDS011;37732;53.106;7.030;2024-03-29T08:57:51;3.40;;;1.27;;
51654;SDS011;37732;53.106;7.030;2024-03-29T09:00:16;2.63;;;1.15;;
51654;SDS011;37732;53.106;7.030;2024-03-29T09:02:42;3.72;;;1.48;;
51654;SDS011;37732;53.106;7.030;2024-03-29T09:05:08;4.05;;;1.42;;
51654;SDS011;37732;53.106;7.030;2024-03-29T09:07:33;3.35;;;1.20;;
51654;SDS011;37732;53.106;7.030;2024-03-29T09:10:00;4.32;;;1.50;;
51654;SDS011;37732;53.106;7.030;2024-03-29T09:12:25;1.88;;;0.95;;
51654;SDS011;37732;53.106;7.030;2024-03-29T09:14:51;2.58;;;0.90;;
51654;SDS011;37732;53.106;7.030;2024-03-29T09:17:17;2.85;;;1.05;;
51654;SDS011;37732;53.106;7.030;2024-03-29T09:19:44;2.42;;;1.10;;
51654;SDS011;37732;53.106;7.030;2024-03-29T09:22:10;3.85;;;1.17;;
51654;SDS011;37732;53.106;7.030;2024-03-29T09:24:35;2.08;;;0.98;;
51654;SDS011;37732;53.106;7.030;2024-03-29T09:27:01;1.75;;;0.90;;
51654;SDS011;37732;53.106;7.030;2024-03-29T09:29:26;0.95;;;0.80;;
51654;SDS011;37732;53.106;7.030;2024-03-29T09:31:52;2.55;;;1.08;;
51654;SDS011;37732;53.106;7.030;2024-03-29T09:34:18;1.98;;;0.88;;
51654;SDS011;37732;53.106;7.030;2024-03-29T09:36:43;1.23;;;0.60;;
51654;SDS011;37732;53.106;7.030;2024-03-29T09:39:09;0.90;;;0.60;;
51654;SDS011;37732;53.106;7.030;2024-03-29T09:41:35;1.55;;;0.68;;
51654;SDS011;37732;53.106;7.030;2024-03-29T09:44:04;1.98;;;0.88;;
51654;SDS011;37732;53.106;7.030;2024-03-29T09:46:32;1.73;;;0.65;;
51654;SDS011;37732;53.106;7.030;2024-03-29T09:48:59;3.95;;;1.10;;
51654;SDS011;37732;53.106;7.030;2024-03-29T09:51:27;3.17;;;0.80;;
51654;SDS011;37732;53.106;7.030;2024-03-29T09:53:53;1.10;;;0.70;;
51654;SDS011;37732;53.106;7.030;2024-03-29T09:56:19;1.42;;;0.95;;
51654;SDS011;37732;53.106;7.030;2024-03-29T09:58:46;2.22;;;1.10;;
51654;SDS011;37732;53.106;7.030;2024-03-29T10:01:12;3.17;;;1.00;;
51654;SDS011;37732;53.106;7.030;2024-03-29T10:03:41;3.28;;;0.90;;
51654;SDS011;37732;53.106;7.030;2024-03-29T10:06:09;2.28;;;0.90;;
51654;SDS011;37732;53.106;7.030;2024-03-29T10:08:39;4.03;;;1.10;;
51654;SDS011;37732;53.106;7.030;2024-03-29T10:11:05;3.03;;;1.17;;
51654;SDS011;37732;53.106;7.030;2024-03-29T10:13:31;2.17;;;1.30;;
51654;SDS011;37732;53.106;7.030;2024-03-29T10:15:59;3.60;;;1.27;;
51654;SDS011;37732;53.106;7.030;2024-03-29T10:18:28;4.32;;;1.33;;
51654;SDS011;37732;53.106;7.030;2024-03-29T10:21:02;2.97;;;1.15;;
51654;SDS011;37732;53.106;7.030;2024-03-29T10:23:30;3.58;;;1.55;;
51654;SDS011;37732;53.106;7.030;2024-03-29T10:25:56;4.75;;;1.58;;
51654;SDS011;37732;53.106;7.030;2024-03-29T10:28:23;2.45;;;1.20;;
51654;SDS011;37732;53.106;7.030;2024-03-29T10:30:52;4.05;;;1.40;;
51654;SDS011;37732;53.106;7.030;2024-03-29T10:33:20;4.40;;;1.60;;
51654;SDS011;37732;53.106;7.030;2024-03-29T10:35:46;3.40;;;1.30;;
51654;SDS011;37732;53.106;7.030;2024-03-29T10:38:12;4.10;;;1.40;;
51654;SDS011;37732;53.106;7.030;2024-03-29T10:40:38;4.07;;;1.40;;
51654;SDS011;37732;53.106;7.030;2024-03-29T10:43:11;4.45;;;1.60;;
51654;SDS011;37732;53.106;7.030;2024-03-29T10:45:41;2.35;;;1.52;;
51654;SDS011;37732;53.106;7.030;2024-03-29T10:48:08;3.95;;;1.60;;
51654;SDS011;37732;53.106;7.030;2024-03-29T10:50:38;3.90;;;1.73;;
51654;SDS011;37732;53.106;7.030;2024-03-29T10:53:07;4.03;;;1.70;;
51654;SDS011;37732;53.106;7.030;2024-03-29T10:55:34;4.82;;;1.48;;
51654;SDS011;37732;53.106;7.030;2024-03-29T10:58:01;3.92;;;1.52;;
51654;SDS011;37732;53.106;7.030;2024-03-29T11:00:29;2.72;;;1.55;;
51654;SDS011;37732;53.106;7.030;2024-03-29T11:05:38;3.67;;;1.65;;
51654;SDS011;37732;53.106;7.030;2024-03-29T11:08:16;3.60;;;1.58;;
51654;SDS011;37732;53.106;7.030;2024-03-29T11:10:47;2.90;;;1.60;;
51654;SDS011;37732;53.106;7.030;2024-03-29T11:15:50;5.28;;;1.77;;
51654;SDS011;37732;53.106;7.030;2024-03-29T11:18:16;4.40;;;1.60;;
51654;SDS011;37732;53.106;7.030;2024-03-29T11:20:44;2.72;;;1.48;;
51654;SDS011;37732;53.106;7.030;2024-03-29T11:23:16;5.13;;;2.25;;
51654;SDS011;37732;53.106;7.030;2024-03-29T11:25:53;3.90;;;1.73;;
51654;SDS011;37732;53.106;7.030;2024-03-29T11:30:59;4.55;;;1.80;;
51654;SDS011;37732;53.106;7.030;2024-03-29T11:33:43;3.17;;;1.70;;
51654;SDS011;37732;53.106;7.030;2024-03-29T11:36:18;5.35;;;1.60;;
51654;SDS011;37732;53.106;7.030;2024-03-29T11:38:46;3.78;;;2.28;;
51654;SDS011;37732;53.106;7.030;2024-03-29T11:41:17;4.72;;;1.95;;
51654;SDS011;37732;53.106;7.030;2024-03-29T11:43:43;3.78;;;1.98;;
51654;SDS011;37732;53.106;7.030;2024-03-29T11:46:13;4.45;;;2.60;;
51654;SDS011;37732;53.106;7.030;2024-03-29T11:48:40;4.90;;;2.70;;
51654;SDS011;37732;53.106;7.030;2024-03-29T11:51:08;5.13;;;2.97;;
51654;SDS011;37732;53.106;7.030;2024-03-29T11:53:37;6.65;;;3.28;;
51654;SDS011;37732;53.106;7.030;2024-03-29T11:56:03;6.35;;;3.42;;
51654;SDS011;37732;53.106;7.030;2024-03-29T11:58:30;5.97;;;3.67;;
51654;SDS011;37732;53.106;7.030;2024-03-29T12:00:58;6.13;;;3.60;;
51654;SDS011;37732;53.106;7.030;2024-03-29T12:03:25;6.20;;;3.53;;
51654;SDS011;37732;53.106;7.030;2024-03-29T12:05:52;5.70;;;3.42;;
51654;SDS011;37732;53.106;7.030;2024-03-29T12:08:23;8.82;;;4.18;;
51654;SDS011;37732;53.106;7.030;2024-03-29T12:10:57;4.45;;;3.30;;
51654;SDS011;37732;53.106;7.030;2024-03-29T12:13:26;7.00;;;3.47;;
51654;SDS011;37732;53.106;7.030;2024-03-29T12:15:52;6.57;;;3.70;;
51654;SDS011;37732;53.106;7.030;2024-03-29T12:18:21;5.15;;;3.45;;
51654;SDS011;37732;53.106;7.030;2024-03-29T12:20:48;5.57;;;3.72;;
51654;SDS011;37732;53.106;7.030;2024-03-29T12:23:18;5.68;;;3.75;;
51654;SDS011;37732;53.106;7.030;2024-03-29T12:25:45;4.95;;;3.00;;
51654;SDS011;37732;53.106;7.030;2024-03-29T12:28:12;3.90;;;2.83;;
51654;SDS011;37732;53.106;7.030;2024-03-29T12:30:46;5.72;;;3.70;;
51654;SDS011;37732;53.106;7.030;2024-03-29T12:33:13;4.30;;;2.95;;
51654;SDS011;37732;53.106;7.030;2024-03-29T12:35:44;5.93;;;3.03;;
51654;SDS011;37732;53.106;7.030;2024-03-29T12:38:11;5.28;;;3.13;;
51654;SDS011;37732;53.106;7.030;2024-03-29T12:40:38;5.30;;;3.38;;
51654;SDS011;37732;53.106;7.030;2024-03-29T12:43:06;5.07;;;3.38;;
51654;SDS011;37732;53.106;7.030;2024-03-29T12:45:36;4.78;;;2.88;;
51654;SDS011;37732;53.106;7.030;2024-03-29T12:48:14;5.68;;;3.25;;
51654;SDS011;37732;53.106;7.030;2024-03-29T12:50:42;3.65;;;2.67;;
51654;SDS011;37732;53.106;7.030;2024-03-29T12:53:09;4.68;;;3.10;;
51654;SDS011;37732;53.106;7.030;2024-03-29T12:55:37;5.10;;;3.22;;
51654;SDS011;37732;53.106;7.030;2024-03-29T12:58:10;4.32;;;3.60;;
51654;SDS011;37732;53.106;7.030;2024-03-29T13:00:37;6.03;;;4.05;;
51654;SDS011;37732;53.106;7.030;2024-03-29T13:03:04;5.90;;;3.70;;
51654;SDS011;37732;53.106;7.030;2024-03-29T13:05:30;6.53;;;3.47;;
51654;SDS011;37732;53.106;7.030;2024-03-29T13:08:03;12.10;;;6.05;;
51654;SDS011;37732;53.106;7.030;2024-03-29T13:10:29;5.60;;;4.20;;
51654;SDS011;37732;53.106;7.030;2024-03-29T13:12:55;8.20;;;4.85;;
51654;SDS011;37732;53.106;7.030;2024-03-29T13:15:22;5.13;;;3.53;;
51654;SDS011;37732;53.106;7.030;2024-03-29T13:17:50;5.88;;;3.42;;
51654;SDS011;37732;53.106;7.030;2024-03-29T13:20:17;7.32;;;3.50;;
51654;SDS011;37732;53.106;7.030;2024-03-29T13:22:44;6.10;;;4.20;;
51654;SDS011;37732;53.106;7.030;2024-03-29T13:25:15;5.68;;;3.72;;
51654;SDS011;37732;53.106;7.030;2024-03-29T13:27:42;4.70;;;3.63;;
51654;SDS011;37732;53.106;7.030;2024-03-29T13:30:09;5.55;;;4.07;;
51654;SDS011;37732;53.106;7.030;2024-03-29T13:32:36;6.60;;;4.57;;
51654;SDS011;37732;53.106;7.030;2024-03-29T13:35:04;5.72;;;3.58;;
51654;SDS011;37732;53.106;7.030;2024-03-29T13:37:50;5.18;;;3.30;;
51654;SDS011;37732;53.106;7.030;2024-03-29T13:40:16;4.63;;;3.38;;
51654;SDS011;37732;53.106;7.030;2024-03-29T13:42:44;5.03;;;3.22;;
51654;SDS011;37732;53.106;7.030;2024-03-29T13:45:10;7.55;;;3.63;;
51654;SDS011;37732;53.106;7.030;2024-03-29T13:47:36;5.70;;;2.97;;
51654;SDS011;37732;53.106;7.030;2024-03-29T13:50:05;3.90;;;2.58;;
51654;SDS011;37732;53.106;7.030;2024-03-29T13:52:30;4.32;;;2.70;;
51654;SDS011;37732;53.106;7.030;2024-03-29T13:54:56;4.68;;;3.22;;
51654;SDS011;37732;53.106;7.030;2024-03-29T13:57:23;4.53;;;2.83;;
51654;SDS011;37732;53.106;7.030;2024-03-29T13:59:48;4.68;;;2.47;;
51654;SDS011;37732;53.106;7.030;2024-03-29T14:02:15;3.60;;;2.78;;
51654;SDS011;37732;53.106;7.030;2024-03-29T14:04:42;3.85;;;2.90;;
51654;SDS011;37732;53.106;7.030;2024-03-29T14:07:09;3.97;;;3.05;;
51654;SDS011;37732;53.106;7.030;2024-03-29T14:09:39;4.15;;;2.80;;
51654;SDS011;37732;53.106;7.030;2024-03-29T14:12:05;5.15;;;2.60;;
51654;SDS011;37732;53.106;7.030;2024-03-29T14:14:31;3.80;;;2.60;;
51654;SDS011;37732;53.106;7.030;2024-03-29T14:16:57;2.75;;;2.40;;
51654;SDS011;37732;53.106;7.030;2024-03-29T14:19:23;4.97;;;2.38;;
51654;SDS011;37732;53.106;7.030;2024-03-29T14:21:49;2.83;;;2.45;;
51654;SDS011;37732;53.106;7.030;2024-03-29T14:24:15;5.07;;;2.50;;
51654;SDS011;37732;53.106;7.030;2024-03-29T14:26:42;2.88;;;2.10;;
51654;SDS011;37732;53.106;7.030;2024-03-29T14:29:08;4.43;;;2.00;;
51654;SDS011;37732;53.106;7.030;2024-03-29T14:31:36;2.53;;;1.73;;
51654;SDS011;37732;53.106;7.030;2024-03-29T14:34:02;2.47;;;1.60;;
51654;SDS011;37732;53.106;7.030;2024-03-29T14:36:28;2.63;;;1.73;;
51654;SDS011;37732;53.106;7.030;2024-03-29T14:38:57;1.83;;;1.33;;
51654;SDS011;37732;53.106;7.030;2024-03-29T14:41:25;2.45;;;1.35;;
51654;SDS011;37732;53.106;7.030;2024-03-29T14:43:51;2.35;;;1.20;;
51654;SDS011;37732;53.106;7.030;2024-03-29T14:46:18;2.38;;;1.40;;
51654;SDS011;37732;53.106;7.030;2024-03-29T14:48:46;3.55;;;1.35;;
51654;SDS011;37732;53.106;7.030;2024-03-29T14:51:15;2.63;;;1.50;;
51654;SDS011;37732;53.106;7.030;2024-03-29T14:53:41;2.88;;;1.40;;
51654;SDS011;37732;53.106;7.030;2024-03-29T14:56:13;2.08;;;1.50;;
51654;SDS011;37732;53.106;7.030;2024-03-29T14:58:38;3.55;;;1.45;;
51654;SDS011;37732;53.106;7.030;2024-03-29T15:01:05;2.42;;;1.40;;